Time;durP1;ratioP1;P1;durP2;ratioP2;P2;SDS_P1;SDS_P2;PMS_P1;PMS_P2;Temp;Humidity;BMP_temperature;BMP_pressure;BME280_temperature;BME280_humidity;BME280_pressure;Samples;Min_cycle;Max_cycle;Signal;HPM_P1;HPM_P2
2024/01/24 00:04:14;;;;;;;15.03;7.27;;;7.00;99.90;;;;;;10451453;28;20241;-87
2024/01/24 00:09:16;;;;;;;11.93;6.10;;;6.70;99.90;;;;;;10456870;28;20648;-87
2024/01/24 00:14:19;;;;;;;13.17;5.30;;;6.90;99.90;;;;;;10457578;28;20231;-87
2024/01/24 00:19:21;;;;;;;12.93;5.87;;;6.70;99.90;;;;;;10457058;28;20268;-87
2024/01/24 00:24:25;;;;;;;18.67;7.20;;;6.40;99.90;;;;;;10457084;28;20234;-87
2024/01/24 00:29:27;;;;;;;19.07;6.13;;;6.10;99.90;;;;;;10456573;28;20279;-86
2024/01/24 00:34:30;;;;;;;17.63;5.50;;;6.10;99.90;;;;;;10456478;28;20700;-87
2024/01/24 00:39:32;;;;;;;15.77;5.03;;;5.90;99.90;;;;;;10456726;28;20729;-87
2024/01/24 00:44:38;;;;;;;11.67;5.27;;;5.20;99.90;;;;;;10456534;28;20749;-87
2024/01/24 00:49:41;;;;;;;9.77;5.00;;;5.10;99.90;;;;;;10454744;28;20324;-87
2024/01/24 00:54:44;;;;;;;9.30;3.40;;;5.20;99.90;;;;;;10455035;28;20222;-87
2024/01/24 00:59:46;;;;;;;17.67;5.07;;;5.10;99.90;;;;;;10455254;28;20229;-87
2024/01/24 01:04:49;;;;;;;11.17;4.83;;;5.00;99.90;;;;;;10455301;28;20624;-87
2024/01/24 01:09:51;;;;;;;12.60;5.60;;;5.10;99.90;;;;;;10453573;28;20826;-87
2024/01/24 01:14:54;;;;;;;13.13;5.23;;;5.60;99.90;;;;;;10452474;28;20664;-87
2024/01/24 01:19:56;;;;;;;9.37;4.20;;;5.30;99.90;;;;;;10454091;28;20292;-87
2024/01/24 01:24:59;;;;;;;10.93;3.60;;;5.30;99.90;;;;;;10454177;28;20308;-87
2024/01/24 01:30:02;;;;;;;9.50;4.03;;;5.10;99.90;;;;;;10453202;28;20658;-88
2024/01/24 01:35:06;;;;;;;11.50;4.53;;;5.00;99.90;;;;;;10454220;28;20680;-87
2024/01/24 01:40:09;;;;;;;8.00;3.80;;;5.00;99.90;;;;;;10453098;28;20210;-87
2024/01/24 01:45:12;;;;;;;11.50;5.27;;;5.10;99.90;;;;;;10452706;28;20625;-87
2024/01/24 01:50:16;;;;;;;7.70;3.77;;;5.20;99.90;;;;;;10454056;28;20314;-87
2024/01/24 01:55:18;;;;;;;9.43;3.63;;;5.30;99.90;;;;;;10453844;28;20277;-87
2024/01/24 02:00:21;;;;;;;8.60;3.93;;;5.40;99.90;;;;;;10454391;28;20680;-88
2024/01/24 02:05:24;;;;;;;9.67;3.97;;;5.40;99.90;;;;;;10454412;28;20204;-87
2024/01/24 02:10:27;;;;;;;12.80;4.13;;;5.40;99.90;;;;;;10454574;28;20724;-86
2024/01/24 02:15:31;;;;;;;7.50;4.10;;;5.40;99.90;;;;;;10453382;28;20285;-87
2024/01/24 02:20:34;;;;;;;11.63;4.03;;;5.40;99.90;;;;;;10453050;28;20280;-87
2024/01/24 02:25:37;;;;;;;12.77;3.70;;;5.60;99.90;;;;;;10453142;28;20236;-87
2024/01/24 02:30:40;;;;;;;19.83;6.03;;;5.30;99.90;;;;;;10453696;28;20317;-87
2024/01/24 02:35:43;;;;;;;9.87;3.67;;;5.30;99.90;;;;;;10452669;28;20308;-88
2024/01/24 02:40:46;;;;;;;12.83;4.17;;;5.40;99.90;;;;;;10452952;28;20243;-87
2024/01/24 02:45:48;;;;;;;5.60;3.37;;;5.50;99.90;;;;;;10451360;28;20666;-87
2024/01/24 02:50:51;;;;;;;15.27;4.13;;;5.60;99.90;;;;;;10450936;28;20260;-87
2024/01/24 02:55:53;;;;;;;12.20;4.63;;;5.60;99.90;;;;;;10452056;28;20269;-87
2024/01/24 03:00:56;;;;;;;9.50;4.57;;;5.50;99.90;;;;;;10450432;28;20234;-87
2024/01/24 03:05:59;;;;;;;10.90;4.47;;;5.50;99.90;;;;;;10450127;28;20266;-87
2024/01/24 03:11:01;;;;;;;12.90;4.80;;;5.60;99.90;;;;;;10451769;28;20321;-87
2024/01/24 03:16:04;;;;;;;10.20;4.13;;;5.50;99.90;;;;;;10450838;28;20232;-88
2024/01/24 03:21:09;;;;;;;11.37;4.63;;;5.70;99.90;;;;;;10451190;28;20200;-87
2024/01/24 03:26:14;;;;;;;10.70;4.00;;;5.70;99.90;;;;;;10450014;28;20203;-87
2024/01/24 03:31:16;;;;;;;11.17;4.27;;;5.80;99.90;;;;;;10449170;28;20250;-87
2024/01/24 03:36:19;;;;;;;7.53;3.90;;;5.60;99.90;;;;;;10448720;28;20286;-87
2024/01/24 03:41:21;;;;;;;4.97;3.97;;;5.60;99.90;;;;;;10449748;28;20223;-86
2024/01/24 03:46:24;;;;;;;9.10;3.93;;;5.70;99.90;;;;;;10449869;28;20287;-86
2024/01/24 03:51:28;;;;;;;7.30;4.03;;;5.70;99.90;;;;;;10450026;28;20227;-87
2024/01/24 03:56:31;;;;;;;8.17;3.80;;;5.70;99.90;;;;;;10448620;28;20245;-87
2024/01/24 04:01:33;;;;;;;11.07;4.53;;;5.60;99.90;;;;;;10448306;28;20677;-86
2024/01/24 04:06:36;;;;;;;13.07;3.87;;;5.80;99.90;;;;;;10449752;28;20200;-86
2024/01/24 04:11:39;;;;;;;8.47;3.47;;;5.60;99.90;;;;;;10448568;28;20256;-86
2024/01/24 04:16:42;;;;;;;7.97;4.33;;;5.60;99.90;;;;;;10448368;28;20231;-86
2024/01/24 04:21:44;;;;;;;11.23;4.30;;;5.60;99.90;;;;;;10448886;28;20262;-86
2024/01/24 04:26:47;;;;;;;9.47;4.63;;;5.50;99.90;;;;;;10449407;28;20227;-86
2024/01/24 04:31:49;;;;;;;7.77;5.07;;;5.50;99.90;;;;;;10448619;28;20224;-86
2024/01/24 04:36:55;;;;;;;9.63;4.37;;;5.40;99.90;;;;;;10450726;28;20262;-87
2024/01/24 04:41:58;;;;;;;6.40;4.07;;;5.40;99.90;;;;;;10450370;28;20242;-87
2024/01/24 04:47:13;;;;;;;8.03;3.73;;;5.50;99.90;;;;;;10434185;28;20258;-87
2024/01/24 04:52:16;;;;;;;7.37;4.30;;;5.40;99.90;;;;;;10455637;28;20226;-87
2024/01/24 04:57:19;;;;;;;10.50;4.90;;;5.50;99.90;;;;;;10455293;28;20611;-86
2024/01/24 05:02:22;;;;;;;15.30;8.40;;;5.50;99.90;;;;;;10435091;28;20235;-86
2024/01/24 05:07:24;;;;;;;12.50;7.13;;;5.40;99.90;;;;;;10454551;28;20244;-86
2024/01/24 05:12:26;;;;;;;11.80;6.50;;;5.40;99.90;;;;;;10456041;28;20232;-86
2024/01/24 05:17:29;;;;;;;8.70;5.10;;;5.50;99.90;;;;;;10453216;28;21594;-86
2024/01/24 05:22:32;;;;;;;13.53;6.07;;;5.40;99.90;;;;;;10452885;28;20233;-86
2024/01/24 05:27:35;;;;;;;13.37;5.33;;;5.40;99.90;;;;;;10454804;28;20255;-86
2024/01/24 05:32:38;;;;;;;10.13;5.70;;;;;;;;;;10454644;28;20700;-86
2024/01/24 05:37:41;;;;;;;10.23;5.37;;;;;;;;;;10436843;28;20592;-87
2024/01/24 05:42:44;;;;;;;10.43;4.57;;;;;;;;;;10436499;28;20762;-86
2024/01/24 05:47:47;;;;;;;14.40;6.57;;;5.80;99.90;;;;;;10453673;28;20266;-87
2024/01/24 05:52:49;;;;;;;10.77;5.07;;;6.00;99.90;;;;;;10454330;28;20253;-87
2024/01/24 05:57:52;;;;;;;10.03;6.20;;;5.80;99.90;;;;;;10453840;28;20231;-88
2024/01/24 06:02:55;;;;;;;8.17;3.87;;;6.00;99.90;;;;;;10451245;28;20225;-87
2024/01/24 06:07:57;;;;;;;9.87;3.80;;;6.10;99.90;;;;;;10451926;28;20258;-87
2024/01/24 06:13:00;;;;;;;4.83;3.67;;;6.40;99.90;;;;;;10452960;28;20227;-90
2024/01/24 06:18:03;;;;;;;6.27;4.10;;;7.10;99.90;;;;;;10452733;28;21048;-90
2024/01/24 06:23:05;;;;;;;16.10;8.20;;;7.00;99.90;;;;;;10451120;28;20236;-89
2024/01/24 06:28:08;;;;;;;7.17;5.80;;;7.80;99.90;;;;;;10451873;28;20238;-89
2024/01/24 06:33:12;;;;;;;4.17;3.60;;;7.10;99.90;;;;;;10450274;28;20660;-88
2024/01/24 06:38:14;;;;;;;4.90;3.10;;;8.40;99.90;;;;;;10452421;28;20486;-90
2024/01/24 06:43:18;;;;;;;5.43;3.00;;;8.10;99.90;;;;;;10450959;28;20707;-89
2024/01/24 06:48:21;;;;;;;5.90;4.47;;;8.10;99.90;;;;;;10450193;28;20613;-90
2024/01/24 06:53:24;;;;;;;7.33;4.37;;;8.50;99.90;;;;;;10451766;28;20229;-88
2024/01/24 06:58:28;;;;;;;5.90;3.60;;;9.00;99.90;;;;;;10450011;28;20226;-88
2024/01/24 07:03:31;;;;;;;4.60;3.30;;;9.00;99.90;;;;;;10450070;28;20234;-88
2024/01/24 07:08:34;;;;;;;8.00;3.83;;;10.20;99.90;;;;;;10450681;28;20238;-89
2024/01/24 07:13:40;;;;;;;4.17;2.00;;;10.60;99.90;;;;;;10449875;28;20598;-89
2024/01/24 07:18:43;;;;;;;4.00;1.87;;;11.40;99.90;;;;;;10449589;28;20222;-90
2024/01/24 07:23:45;;;;;;;5.77;3.40;;;12.20;99.90;;;;;;10450923;28;20234;-89
2024/01/24 07:28:48;;;;;;;3.07;2.47;;;12.30;99.90;;;;;;10451421;28;20258;-87
2024/01/24 07:33:50;;;;;;;2.80;1.73;;;12.60;99.90;;;;;;10451106;28;20276;-87
2024/01/24 07:38:53;;;;;;;2.87;2.10;;;;;;;;;;10449654;28;20230;-87
2024/01/24 07:43:56;;;;;;;2.80;0.97;;;13.20;99.90;;;;;;10448790;28;20230;-86
2024/01/24 07:48:58;;;;;;;3.40;1.37;;;13.10;99.90;;;;;;10449578;28;20257;-86
2024/01/24 07:54:01;;;;;;;3.33;2.80;;;13.10;99.90;;;;;;10447632;28;20233;-87
2024/01/24 07:59:06;;;;;;;6.57;4.80;;;12.40;99.90;;;;;;10449028;28;20681;-86
2024/01/24 08:04:09;;;;;;;5.73;2.03;;;12.60;99.90;;;;;;10448788;28;20245;-86
2024/01/24 08:09:12;;;;;;;5.60;3.60;;;12.40;99.90;;;;;;10449041;28;20281;-86
2024/01/24 08:14:16;;;;;;;7.27;2.57;;;12.60;99.90;;;;;;10448467;28;20239;-86
2024/01/24 08:19:18;;;;;;;5.80;3.10;;;12.60;99.90;;;;;;10446489;28;20268;-87
2024/01/24 08:24:21;;;;;;;7.17;3.87;;;13.00;99.90;;;;;;10447250;28;20230;-86
2024/01/24 08:29:25;;;;;;;5.37;2.80;;;12.80;99.90;;;;;;10455074;28;20331;-86
2024/01/24 08:34:38;;;;;;;4.60;2.30;;;13.00;99.90;;;;;;10457130;28;20316;-86
2024/01/24 08:39:41;;;;;;;2.47;1.53;;;13.30;99.90;;;;;;10456176;28;20230;-85
2024/01/24 08:44:44;;;;;;;15.20;6.97;;;13.40;99.90;;;;;;10456070;28;20271;-87
2024/01/24 08:49:48;;;;;;;4.40;3.00;;;13.60;99.90;;;;;;10456113;28;20253;-85
2024/01/24 08:54:51;;;;;;;6.53;3.20;;;13.80;99.90;;;;;;10455895;28;20249;-86
2024/01/24 08:59:54;;;;;;;6.90;3.00;;;13.90;99.90;;;;;;10455225;28;20288;-85
2024/01/24 09:04:58;;;;;;;2.40;0.97;;;14.00;99.90;;;;;;10454150;28;20238;-84
2024/01/24 09:10:03;;;;;;;4.40;2.13;;;14.10;99.90;;;;;;10454971;28;20700;-85
2024/01/24 09:15:06;;;;;;;3.37;1.30;;;14.10;99.90;;;;;;10453801;28;20234;-84
2024/01/24 09:20:09;;;;;;;1.27;0.83;;;14.30;99.90;;;;;;10453953;28;20246;-84
2024/01/24 09:25:12;;;;;;;6.80;3.17;;;14.20;99.90;;;;;;10453327;28;20242;-84
2024/01/24 09:30:17;;;;;;;5.73;3.57;;;14.00;99.90;;;;;;10454109;28;20263;-84
2024/01/24 09:35:19;;;;;;;4.57;2.73;;;13.40;99.90;;;;;;10452648;28;20681;-85
2024/01/24 09:40:23;;;;;;;4.70;1.50;;;13.90;99.90;;;;;;10453548;28;20296;-85
2024/01/24 09:45:27;;;;;;;3.23;1.30;;;13.90;99.90;;;;;;10453665;28;20261;-85
2024/01/24 09:50:30;;;;;;;2.07;1.40;;;14.20;99.90;;;;;;10453401;28;20250;-85
2024/01/24 09:55:33;;;;;;;4.70;1.77;;;14.50;99.90;;;;;;10451970;28;20225;-86
2024/01/24 10:00:36;;;;;;;2.23;1.40;;;14.70;99.90;;;;;;10453212;28;20684;-85
2024/01/24 10:05:40;;;;;;;1.73;1.37;;;14.80;99.90;;;;;;10452607;28;20588;-84
2024/01/24 10:10:44;;;;;;;3.40;1.63;;;14.60;99.90;;;;;;10451510;28;20284;-85
2024/01/24 10:15:47;;;;;;;4.40;1.50;;;14.70;99.90;;;;;;10452905;28;20336;-85
2024/01/24 10:20:50;;;;;;;5.87;1.43;;;14.70;99.90;;;;;;10451100;28;20226;-85
2024/01/24 10:25:55;;;;;;;1.50;1.33;;;14.90;99.90;;;;;;10452045;28;20614;-87
2024/01/24 10:30:57;;;;;;;1.80;0.80;;;14.80;99.90;;;;;;10450178;28;20749;-85
2024/01/24 10:36:00;;;;;;;1.87;1.27;;;14.80;99.90;;;;;;10433946;28;20801;-85
2024/01/24 10:41:14;;;;;;;1.57;1.13;;;15.00;99.90;;;;;;10452171;28;20269;-86
2024/01/24 10:46:17;;;;;;;3.50;1.53;;;14.90;99.90;;;;;;10451312;28;20238;-86
2024/01/24 10:51:20;;;;;;;5.17;2.20;;;14.80;99.90;;;;;;10451410;28;20711;-86
2024/01/24 10:56:27;;;;;;;8.13;0.97;;;14.80;99.90;;;;;;10449184;28;20712;-86
2024/01/24 11:01:30;;;;;;;2.43;1.20;;;14.90;99.90;;;;;;10451410;28;20246;-87
2024/01/24 11:06:35;;;;;;;0.97;0.80;;;14.80;99.90;;;;;;10448268;28;20231;-86
2024/01/24 11:11:40;;;;;;;2.23;1.10;;;14.80;99.90;;;;;;10450658;28;20307;-86
2024/01/24 11:16:45;;;;;;;5.70;1.53;;;14.90;99.90;;;;;;10450217;28;20230;-85
2024/01/24 11:21:49;;;;;;;1.67;0.80;;;14.80;99.90;;;;;;10419777;28;20230;-87
2024/01/24 11:26:51;;;;;;;1.97;0.90;;;14.90;99.90;;;;;;10450820;28;20620;-88
2024/01/24 11:31:56;;;;;;;5.33;1.40;;;14.80;99.90;;;;;;10450081;28;20258;-87
2024/01/24 11:37:05;;;;;;;7.90;1.30;;;14.90;99.90;;;;;;10450063;28;20262;-87
2024/01/24 11:42:23;;;;;;;4.70;1.30;;;14.90;99.90;;;;;;10448880;28;20206;-89
2024/01/24 11:47:26;;;;;;;2.63;1.13;;;14.80;99.90;;;;;;10449557;28;20680;-87
2024/01/24 11:52:29;;;;;;;4.33;1.50;;;14.90;99.90;;;;;;10449930;28;20258;-87
2024/01/24 11:57:31;;;;;;;6.33;1.77;;;15.00;99.90;;;;;;10448361;28;20195;-84
2024/01/24 12:02:34;;;;;;;1.53;0.77;;;15.00;99.90;;;;;;10449033;28;20715;-86
2024/01/24 12:07:38;;;;;;;2.33;0.90;;;14.40;99.90;;;;;;10446559;28;20449;-87
2024/01/24 12:12:41;;;;;;;2.23;0.67;;;14.30;99.90;;;;;;10444704;28;20306;-86
2024/01/24 12:17:43;;;;;;;4.57;1.47;;;14.40;99.90;;;;;;10446760;28;20284;-87
2024/01/24 12:22:47;;;;;;;4.07;1.20;;;14.40;99.90;;;;;;10448811;28;20603;-87
2024/01/24 12:27:50;;;;;;;8.33;1.50;;;14.50;99.90;;;;;;10448137;28;20623;-87
2024/01/24 12:32:55;;;;;;;4.93;1.60;;;14.60;99.90;;;;;;10448438;28;20288;-88
2024/01/24 12:38:04;;;;;;;2.00;1.03;;;14.30;99.90;;;;;;10431262;28;20250;-86
2024/01/24 12:43:07;;;;;;;4.53;1.43;;;14.60;99.90;;;;;;10448901;28;20315;-86
2024/01/24 12:48:12;;;;;;;3.67;1.33;;;14.70;99.90;;;;;;10448831;28;20261;-86
2024/01/24 12:53:15;;;;;;;5.43;1.33;;;14.80;99.90;;;;;;10449928;28;20627;-86
2024/01/24 12:58:18;;;;;;;3.67;0.87;;;14.80;99.90;;;;;;10449253;28;20207;-86
2024/01/24 13:03:21;;;;;;;1.33;0.97;;;14.80;99.90;;;;;;10447912;28;20211;-87
2024/01/24 13:08:26;;;;;;;2.13;1.73;;;14.90;99.90;;;;;;10447772;28;20227;-86
2024/01/24 13:13:29;;;;;;;2.63;1.03;;;14.80;99.90;;;;;;10450955;28;20314;-87
2024/01/24 13:18:32;;;;;;;2.63;1.00;;;14.90;99.90;;;;;;10455369;28;20311;-86
2024/01/24 13:23:35;;;;;;;3.87;1.07;;;14.90;99.90;;;;;;10455104;28;20605;-87
2024/01/24 13:28:39;;;;;;;6.70;1.00;;;14.80;99.90;;;;;;10453621;28;20237;-86
2024/01/24 13:33:45;;;;;;;1.90;0.70;;;14.90;99.90;;;;;;10454369;28;20318;-86
2024/01/24 13:38:47;;;;;;;6.23;1.50;;;14.90;99.90;;;;;;10454292;28;20234;-86
2024/01/24 13:43:50;;;;;;;4.60;1.40;;;14.90;99.90;;;;;;10453785;28;20644;-86
2024/01/24 13:48:53;;;;;;;5.20;1.50;;;14.80;99.90;;;;;;10453786;28;20238;-84
2024/01/24 13:53:56;;;;;;;3.47;1.10;;;14.90;99.90;;;;;;10453415;28;20307;-85
2024/01/24 13:58:58;;;;;;;5.90;1.60;;;14.90;99.90;;;;;;10453472;28;20245;-85
2024/01/24 14:04:01;;;;;;;6.87;2.23;;;14.80;99.90;;;;;;10452413;28;20308;-87
2024/01/24 14:09:04;;;;;;;8.23;2.57;;;14.30;99.90;;;;;;10450463;28;20245;-88
2024/01/24 14:14:07;;;;;;;5.83;1.53;;;13.00;99.90;;;;;;10451849;28;20235;-87
2024/01/24 14:19:09;;;;;;;4.17;1.00;;;12.40;99.90;;;;;;10451375;28;20300;-85
2024/01/24 14:24:13;;;;;;;5.90;2.00;;;12.10;99.90;;;;;;10452856;28;20605;-87
2024/01/24 14:29:15;;;;;;;0.93;0.50;;;13.10;99.90;;;;;;10453744;28;20312;-88
2024/01/24 14:34:17;;;;;;;9.27;1.70;;;13.90;99.90;;;;;;10452427;28;20258;-86
2024/01/24 14:39:21;;;;;;;9.17;1.53;;;14.20;99.90;;;;;;10450103;28;20299;-88
2024/01/24 14:44:23;;;;;;;7.80;1.73;;;14.30;99.90;;;;;;10451075;28;20238;-88
2024/01/24 14:49:26;;;;;;;6.13;1.80;;;14.30;99.90;;;;;;10450188;28;20254;-85
2024/01/24 14:54:29;;;;;;;3.13;0.90;;;14.30;99.90;;;;;;10450024;28;20256;-85
2024/01/24 14:59:32;;;;;;;4.17;1.20;;;14.40;99.90;;;;;;10451128;28;20238;-86
2024/01/24 15:04:36;;;;;;;7.07;1.93;;;14.40;99.90;;;;;;10451262;28;20207;-87
2024/01/24 15:09:39;;;;;;;3.40;1.13;;;14.60;99.90;;;;;;10450586;28;20940;-86
2024/01/24 15:14:41;;;;;;;6.40;1.40;;;14.50;99.90;;;;;;10451023;28;20297;-88
2024/01/24 15:19:45;;;;;;;4.67;1.47;;;14.50;99.90;;;;;;10450479;28;20305;-88
2024/01/24 15:24:50;;;;;;;4.37;1.13;;;14.40;99.90;;;;;;10449190;28;20261;-88
2024/01/24 15:29:53;;;;;;;1.50;0.77;;;14.30;99.90;;;;;;10450815;28;20246;-87
2024/01/24 15:34:55;;;;;;;4.67;1.30;;;14.50;99.90;;;;;;10448122;28;20254;-88
2024/01/24 15:39:58;;;;;;;5.90;1.37;;;14.50;99.90;;;;;;10450374;28;20288;-86
2024/01/24 15:45:01;;;;;;;3.73;1.43;;;14.50;99.90;;;;;;10449658;28;20226;-86
2024/01/24 15:50:05;;;;;;;2.63;0.70;;;14.50;99.90;;;;;;10449483;28;20280;-84
2024/01/24 15:55:07;;;;;;;4.20;1.60;;;14.40;99.90;;;;;;10449649;28;20287;-85
2024/01/24 16:00:11;;;;;;;5.50;1.30;;;14.40;99.90;;;;;;10449418;28;20227;-84
2024/01/24 16:05:23;;;;;;;2.60;1.20;;;14.60;99.90;;;;;;10450000;28;20285;-87
2024/01/24 16:10:25;;;;;;;5.83;1.77;;;14.00;99.90;;;;;;10449975;28;20323;-87
2024/01/24 16:15:28;;;;;;;6.90;1.80;;;13.80;99.90;;;;;;10450036;28;20214;-87
2024/01/24 16:20:30;;;;;;;11.63;2.07;;;13.90;99.90;;;;;;10446719;28;20230;-82
2024/01/24 16:25:33;;;;;;;9.27;2.30;;;13.80;99.90;;;;;;10427033;28;20268;-82
2024/01/24 16:30:37;;;;;;;9.10;2.13;;;13.60;99.90;;;;;;10448536;28;20299;-82
2024/01/24 16:35:39;;;;;;;5.30;1.60;;;14.00;99.90;;;;;;10448449;28;20300;-84
2024/01/24 16:40:42;;;;;;;6.47;1.63;;;14.60;99.90;;;;;;10448121;28;20277;-84
2024/01/24 16:45:45;;;;;;;8.20;1.63;;;15.30;99.90;;;;;;10450355;28;20616;-83
2024/01/24 16:50:47;;;;;;;8.93;1.80;;;15.40;99.90;;;;;;10454224;28;20250;-83
2024/01/24 16:55:50;;;;;;;5.93;1.70;;;15.60;99.90;;;;;;10455209;28;20219;-80
2024/01/24 17:00:52;;;;;;;10.13;2.20;;;15.70;99.90;;;;;;10454053;28;20760;-81
2024/01/24 17:05:55;;;;;;;9.70;4.00;;;15.60;99.90;;;;;;10455319;28;20612;-84
2024/01/24 17:10:59;;;;;;;15.63;3.57;;;13.60;99.90;;;;;;10453015;28;20258;-84
2024/01/24 17:16:02;;;;;;;11.03;4.00;;;10.30;99.90;;;;;;10450037;28;20220;-85
2024/01/24 17:21:05;;;;;;;10.73;3.30;;;9.30;99.90;;;;;;10444347;28;20690;-84
2024/01/24 17:26:09;;;;;;;12.43;3.93;;;9.20;99.90;;;;;;10101066;28;10000467;-82
2024/01/24 17:31:13;;;;;;;5.30;2.73;;;9.00;99.90;;;;;;10433036;28;20252;-84
2024/01/24 17:36:16;;;;;;;4.20;2.70;;;;;;;;;;10451643;28;20256;-85
2024/01/24 17:41:18;;;;;;;10.60;2.77;;;8.60;99.90;;;;;;10451127;28;20285;-83
2024/01/24 17:46:21;;;;;;;8.30;3.40;;;8.60;99.90;;;;;;10449992;28;20234;-85
2024/01/24 17:51:23;;;;;;;8.70;3.50;;;8.60;99.90;;;;;;10451117;28;20251;-84
2024/01/24 17:56:26;;;;;;;6.73;2.73;;;8.70;99.90;;;;;;10450155;28;20270;-83
2024/01/24 18:01:29;;;;;;;5.63;2.60;;;9.10;99.90;;;;;;10448968;28;20900;-84
2024/01/24 18:06:32;;;;;;;5.90;2.27;;;9.10;99.90;;;;;;10449299;28;20300;-85
2024/01/24 18:11:35;;;;;;;6.70;2.43;;;8.80;99.90;;;;;;10447864;28;20801;-84
2024/01/24 18:16:38;;;;;;;5.70;1.53;;;9.00;99.90;;;;;;10447668;28;20747;-85
2024/01/24 18:21:41;;;;;;;8.87;1.67;;;9.00;99.90;;;;;;10446628;28;20231;-85
2024/01/24 18:26:44;;;;;;;8.57;2.60;;;9.20;99.90;;;;;;10449946;28;20226;-85
2024/01/24 18:31:47;;;;;;;7.47;2.37;;;8.80;99.90;;;;;;10448553;28;20519;-84
2024/01/24 18:36:50;;;;;;;4.57;1.93;;;8.90;99.90;;;;;;10448900;28;20266;-84
2024/01/24 18:41:52;;;;;;;5.23;2.60;;;9.50;99.90;;;;;;10449973;28;20917;-85
2024/01/24 18:46:55;;;;;;;6.07;2.23;;;9.50;99.90;;;;;;10448112;28;20692;-85
2024/01/24 18:51:57;;;;;;;5.83;2.37;;;9.10;99.90;;;;;;10450135;28;20258;-85
2024/01/24 18:57:00;;;;;;;5.93;2.03;;;8.80;99.90;;;;;;10447831;28;20269;-86
2024/01/24 19:02:03;;;;;;;8.03;2.10;;;8.80;99.90;;;;;;10447981;28;20272;-85
2024/01/24 19:07:06;;;;;;;6.27;2.10;;;9.10;99.90;;;;;;10447468;28;20253;-85
2024/01/24 19:12:09;;;;;;;5.00;2.70;;;9.20;99.90;;;;;;10448054;28;20249;-87
2024/01/24 19:17:12;;;;;;;7.87;2.40;;;9.20;99.90;;;;;;10449548;28;20227;-85
2024/01/24 19:22:15;;;;;;;2.57;0.90;;;9.10;99.90;;;;;;10447311;28;20235;-84
2024/01/24 19:27:18;;;;;;;2.00;0.60;;;;;;;;;;10449787;28;20292;-83
2024/01/24 19:32:20;;;;;;;4.63;0.90;;;14.00;99.90;;;;;;10442712;28;20306;-86
2024/01/24 19:37:24;;;;;;;5.97;1.50;;;15.60;99.90;;;;;;10450361;28;20258;-84
2024/01/24 19:42:28;;;;;;;3.00;0.83;;;15.80;99.90;;;;;;10451443;28;20576;-85
2024/01/24 19:47:32;;;;;;;2.93;0.70;;;16.10;99.90;;;;;;10445677;28;20684;-83
2024/01/24 19:52:37;;;;;;;5.83;0.50;;;16.30;99.90;;;;;;10456912;28;20258;-84
2024/01/24 19:57:40;;;;;;;3.17;1.00;;;16.20;99.90;;;;;;10454270;28;20203;-83
2024/01/24 20:02:42;;;;;;;2.60;0.70;;;16.20;99.90;;;;;;10464063;28;20207;-85
2024/01/24 20:07:45;;;;;;;5.97;1.20;;;16.10;99.90;;;;;;10452982;28;20198;-85
2024/01/24 20:12:48;;;;;;;2.90;1.00;;;16.30;99.90;;;;;;10449299;28;20247;-86
2024/01/24 20:17:51;;;;;;;2.40;1.03;;;16.10;99.90;;;;;;10450574;28;20571;-85
2024/01/24 20:22:54;;;;;;;4.93;1.00;;;15.50;99.90;;;;;;10452946;28;20678;-85
2024/01/24 20:27:57;;;;;;;1.33;0.40;;;15.90;99.90;;;;;;10457463;28;20248;-84
2024/01/24 20:33:01;;;;;;;5.47;0.83;;;15.70;99.90;;;;;;10458022;28;20250;-84
2024/01/24 20:38:07;;;;;;;3.73;1.00;;;15.70;99.90;;;;;;10455175;28;20252;-84
2024/01/24 20:43:10;;;;;;;4.07;0.97;;;15.70;99.90;;;;;;10458606;28;20316;-85
2024/01/24 20:48:13;;;;;;;10.97;4.17;;;15.70;99.90;;;;;;10459616;28;20257;-85
2024/01/24 20:53:18;;;;;;;203.50;100.93;;;12.00;99.90;;;;;;10458126;28;20248;-85
2024/01/24 20:58:20;;;;;;;124.93;54.27;;;12.70;99.90;;;;;;10450599;28;20195;-82
2024/01/24 21:03:24;;;;;;;85.67;42.60;;;13.70;99.90;;;;;;10456090;28;20280;-85
2024/01/24 21:08:28;;;;;;;71.43;38.07;;;14.90;99.90;;;;;;10469372;28;20206;-85
2024/01/24 21:13:30;;;;;;;78.27;36.63;;;15.30;99.90;;;;;;10468672;28;20329;-86
2024/01/24 21:18:33;;;;;;;85.53;38.00;;;15.50;99.90;;;;;;10458918;28;20207;-84
2024/01/24 21:23:35;;;;;;;93.23;42.00;;;15.70;99.90;;;;;;10456444;28;20203;-85
2024/01/24 21:28:39;;;;;;;101.80;47.80;;;15.50;99.90;;;;;;10456052;28;20207;-85
2024/01/24 21:33:41;;;;;;;121.87;58.37;;;15.70;99.90;;;;;;10456179;28;20289;-86
2024/01/24 21:38:44;;;;;;;78.67;36.70;;;15.70;99.90;;;;;;10456960;28;20226;-86
2024/01/24 21:43:47;;;;;;;99.23;47.63;;;15.70;99.90;;;;;;10458529;28;20222;-85
2024/01/24 21:48:49;;;;;;;87.00;38.67;;;15.60;99.90;;;;;;10457428;28;20211;-85
2024/01/24 21:53:52;;;;;;;60.80;30.03;;;15.70;99.90;;;;;;10456587;28;20222;-85
2024/01/24 21:58:55;;;;;;;64.40;28.20;;;15.60;99.90;;;;;;10457830;28;20229;-84
2024/01/24 22:03:58;;;;;;;79.40;41.53;;;15.70;99.90;;;;;;10436297;28;20265;-86
2024/01/24 22:09:01;;;;;;;53.23;25.17;;;15.40;99.90;;;;;;10474701;28;20604;-83
2024/01/24 22:14:05;;;;;;;61.20;28.27;;;15.40;99.90;;;;;;10456980;28;20250;-83
2024/01/24 22:19:07;;;;;;;53.53;26.93;;;15.20;99.90;;;;;;10483814;28;20203;-84
2024/01/24 22:24:10;;;;;;;29.97;17.17;;;15.30;99.90;;;;;;10462258;28;20819;-85
2024/01/24 22:29:12;;;;;;;56.00;23.87;;;15.20;99.90;;;;;;10481418;28;20199;-87
2024/01/24 22:34:15;;;;;;;153.10;68.60;;;15.30;99.90;;;;;;10463468;28;20292;-87
2024/01/24 22:39:18;;;;;;;112.60;46.83;;;14.90;99.90;;;;;;10463821;28;20195;-85
2024/01/24 22:44:20;;;;;;;121.53;58.53;;;15.20;99.90;;;;;;10452246;28;20195;-86
2024/01/24 22:49:23;;;;;;;102.47;55.57;;;15.10;99.90;;;;;;10450265;28;20261;-85
2024/01/24 22:54:25;;;;;;;61.80;28.33;;;15.40;99.90;;;;;;10450096;28;20262;-85
2024/01/24 22:59:29;;;;;;;96.90;45.73;;;15.30;99.90;;;;;;10433901;28;20264;-85
2024/01/24 23:04:33;;;;;;;91.50;48.17;;;15.20;99.90;;;;;;10450772;28;20257;-86
2024/01/24 23:09:36;;;;;;;81.50;42.50;;;15.30;99.90;;;;;;10452454;28;20265;-85
2024/01/24 23:14:41;;;;;;;71.27;30.13;;;15.40;99.90;;;;;;10452405;28;20304;-87
2024/01/24 23:19:43;;;;;;;40.03;20.47;;;15.30;99.90;;;;;;10452045;28;20217;-86
2024/01/24 23:24:46;;;;;;;54.27;27.37;;;15.20;99.90;;;;;;10451947;28;20191;-85
2024/01/24 23:29:48;;;;;;;31.87;14.40;;;15.10;99.90;;;;;;10452176;28;20660;-85
2024/01/24 23:34:51;;;;;;;48.40;28.50;;;15.20;99.90;;;;;;10451393;28;20263;-86
2024/01/24 23:39:53;;;;;;;33.80;16.47;;;15.10;99.90;;;;;;10450135;28;20203;-86
2024/01/24 23:44:56;;;;;;;54.50;28.47;;;15.20;99.90;;;;;;10451230;28;20221;-85
2024/01/24 23:49:58;;;;;;;27.73;14.70;;;15.40;99.90;;;;;;10451218;28;20211;-85
2024/01/24 23:55:04;;;;;;;19.83;10.83;;;14.70;99.90;;;;;;10449208;28;20311;-85
